Time;durP1;ratioP1;P1;durP2;ratioP2;P2;SDS_P1;SDS_P2;PMS_P1;PMS_P2;Temp;Humidity;BMP_temperature;BMP_pressure;BME280_temperature;BME280_humidity;BME280_pressure;Samples;Min_cycle;Max_cycle;Signal;HPM_P1;HPM_P2
2023/12/15 00:00:23;;;;;;;;;;;;;;;;;;5120123;27;1393;-67
2023/12/15 00:02:48;;;;;;;;;;;;;;;;;;5137906;27;825;-68
2023/12/15 00:05:13;;;;;;;;;;;;;;;;;;5138312;27;812;-68
2023/12/15 00:07:39;;;;;;;;;;;;;;;;;;5138313;27;1968;-69
2023/12/15 00:10:05;;;;;;;;;;;;;;;;;;5102498;27;965;-69
2023/12/15 00:12:31;;;;;;;;;;;;;;;;;;5137811;27;879;-68
2023/12/15 00:14:56;;;;;;;;;;;;;;;;;;5137299;27;899;-69
2023/12/15 00:17:21;;;;;;;;;;;;;;;;;;5118807;27;1364;-68
2023/12/15 00:19:47;;;;;;;;;;;;;;;;;;5118815;27;962;-68
2023/12/15 00:22:12;;;;;;;;;;;;;;;;;;5137214;27;1190;-68
2023/12/15 00:24:37;;;;;;;;;;;;;;;;;;5118606;27;1837;-68
2023/12/15 00:27:03;;;;;;;;;;;;;;;;;;5137098;27;1898;-69
2023/12/15 00:29:28;;;;;;;;;;;;;;;;;;5137308;27;898;-69
2023/12/15 00:31:53;;;;;;;;;;;;;;;;;;5136947;27;839;-68
2023/12/15 00:34:18;;;;;;;;;;;;;;;;;;5136709;27;881;-68
2023/12/15 00:36:44;;;;;;;;;;;;;;;;;;5137365;27;839;-68
2023/12/15 00:39:09;;;;;;;;;;;;;;;;;;5136758;27;820;-69
2023/12/15 00:41:35;;;;;;;;;;;;;;;;;;5118848;27;970;-68
2023/12/15 00:44:02;;;;;;;;;;;;;;;;;;5137116;27;1231;-69
2023/12/15 00:46:27;;;;;;;;;;;;;;;;;;5136807;27;883;-69
2023/12/15 00:48:52;;;;;;;;;;;;;;;;;;5137011;27;1966;-69
2023/12/15 00:51:18;;;;;;;;;;;;;;;;;;5136696;27;796;-68
2023/12/15 00:53:43;;;;;;;;;;;;;;;;;;5118217;27;832;-68
2023/12/15 00:56:09;;;;;;;;;;;;;;;;;;5136762;27;1221;-69
2023/12/15 00:58:35;;;;;;;;;;;;;;;;;;5117985;27;1586;-69
2023/12/15 01:01:00;;;;;;;;;;;;;;;;;;5136546;27;863;-68
2023/12/15 01:03:25;;;;;;;;;;;;;;;;;;5136476;27;915;-68
2023/12/15 01:05:50;;;;;;;;;;;;;;;;;;5136084;27;1117;-68
2023/12/15 01:08:16;;;;;;;;;;;;;;;;;;5117856;27;1902;-68
2023/12/15 01:10:41;;;;;;;;;;;;;;;;;;5136096;27;895;-69
2023/12/15 01:13:06;;;;;;;;;;;;;;;;;;5136628;27;1069;-68
2023/12/15 01:15:32;;;;;;;;;;;;;;;;;;5117911;27;963;-69
2023/12/15 01:17:57;;;;;;;;;;;;;;;;;;5136067;27;947;-68
2023/12/15 01:20:23;;;;;;;;;;;;;;;;;;5136069;27;1224;-68
2023/12/15 01:22:48;;;;;;;;;;;;;;;;;;5118203;27;927;-68
2023/12/15 01:25:13;;;;;;;;;;;;;;;;;;5136303;27;882;-69
2023/12/15 01:27:39;;;;;;;;;;;;;;;;;;5136424;27;1959;-68
2023/12/15 01:30:05;;;;;;;;;;;;;;;;;;5118129;27;844;-68
2023/12/15 01:32:30;;;;;;;;;;;;;;;;;;5136277;27;1386;-68
2023/12/15 01:34:56;;;;;;;;;;;;;;;;;;5136294;27;1157;-68
2023/12/15 01:37:21;;;;;;;;;;;;;;;;;;5117393;27;805;-69
2023/12/15 01:39:46;;;;;;;;;;;;;;;;;;5135920;27;888;-69
2023/12/15 01:42:11;;;;;;;;;;;;;;;;;;5136366;27;773;-67
2023/12/15 01:44:37;;;;;;;;;;;;;;;;;;5136321;27;954;-68
2023/12/15 01:47:02;;;;;;;;;;;;;;;;;;5135685;27;1905;-68
2023/12/15 01:49:31;;;;;;;;;;;;;;;;;;5117556;27;1050;-69
2023/12/15 01:51:56;;;;;;;;;;;;;;;;;;5117057;27;1272;-68
2023/12/15 01:54:22;;;;;;;;;;;;;;;;;;5135976;27;796;-68
2023/12/15 01:56:47;;;;;;;;;;;;;;;;;;5117467;27;1206;-69
2023/12/15 01:59:12;;;;;;;;;;;;;;;;;;5135941;27;1331;-69
2023/12/15 02:01:37;;;;;;;;;;;;;;;;;;5135569;27;784;-68
2023/12/15 02:04:03;;;;;;;;;;;;;;;;;;5135313;27;891;-68
2023/12/15 02:06:28;;;;;;;;;;;;;;;;;;5135247;27;998;-68
2023/12/15 02:08:53;;;;;;;;;;;;;;;;;;5135113;27;1960;-69
2023/12/15 02:11:19;;;;;;;;;;;;;;;;;;5134819;27;998;-69
2023/12/15 02:13:44;;;;;;;;;;;;;;;;;;5134955;27;825;-67
2023/12/15 02:16:09;;;;;;;;;;;;;;;;;;5135202;27;887;-69
2023/12/15 02:18:34;;;;;;;;;;;;;;;;;;5135313;27;789;-68
2023/12/15 02:21:00;;;;;;;;;;;;;;;;;;5134825;27;918;-67
2023/12/15 02:23:25;;;;;;;;;;;;;;;;;;5135063;27;910;-68
2023/12/15 02:25:50;;;;;;;;;;;;;;;;;;5135383;27;891;-68
2023/12/15 02:28:15;;;;;;;;;;;;;;;;;;5135002;27;1957;-69
2023/12/15 02:30:41;;;;;;;;;;;;;;;;;;5116505;27;1009;-69
2023/12/15 02:33:06;;;;;;;;;;;;;;;;;;5135037;27;855;-68
2023/12/15 02:35:31;;;;;;;;;;;;;;;;;;5135003;27;896;-68
2023/12/15 02:37:56;;;;;;;;;;;;;;;;;;5134749;27;1064;-68
2023/12/15 02:40:22;;;;;;;;;;;;;;;;;;5134462;27;902;-69
2023/12/15 02:42:47;;;;;;;;;;;;;;;;;;5134682;27;828;-68
2023/12/15 02:45:12;;;;;;;;;;;;;;;;;;5134877;27;878;-68
2023/12/15 02:47:38;;;;;;;;;;;;;;;;;;5135416;27;1890;-68
2023/12/15 02:50:03;;;;;;;;;;;;;;;;;;5134351;27;959;-69
2023/12/15 02:52:28;;;;;;;;;;;;;;;;;;5134818;27;923;-69
2023/12/15 02:54:54;;;;;;;;;;;;;;;;;;5116220;28;1199;-69
2023/12/15 02:57:19;;;;;;;;;;;;;;;;;;5134610;27;927;-68
2023/12/15 02:59:44;;;;;;;;;;;;;;;;;;5134657;28;974;-68
2023/12/15 03:02:10;;;;;;;;;;;;;;;;;;5134303;28;891;-69
2023/12/15 03:04:35;;;;;;;;;;;;;;;;;;5134986;27;903;-69
2023/12/15 03:07:00;;;;;;;;;;;;;;;;;;5134663;27;986;-69
2023/12/15 03:09:25;;;;;;;;;;;;;;;;;;5134735;27;943;-67
2023/12/15 03:11:51;;;;;;;;;;;;;;;;;;5135065;28;895;-69
2023/12/15 03:14:16;;;;;;;;;;;;;;;;;;5134888;27;848;-63
2023/12/15 03:16:41;;;;;;;;;;;;;;;;;;5134745;28;978;-63
2023/12/15 03:19:07;;;;;;;;;;;;;;;;;;5134773;28;856;-62
2023/12/15 03:21:32;;;;;;;;;;;;;;;;;;5134797;28;847;-63
2023/12/15 03:23:57;;;;;;;;;;;;;;;;;;5134391;27;927;-63
2023/12/15 03:26:22;;;;;;;;;;;;;;;;;;5134510;27;990;-64
2023/12/15 03:28:48;;;;;;;;;;;;;;;;;;5135133;27;1959;-63
2023/12/15 03:31:13;;;;;;;;;;;;;;;;;;5138431;27;931;-62
2023/12/15 03:33:38;;;;;;;;;;;;;;;;;;5138474;27;927;-64
2023/12/15 03:36:04;;;;;;;;;;;;;;;;;;5138186;27;868;-62
2023/12/15 03:38:29;;;;;;;;;;;;;;;;;;5137799;27;986;-62
2023/12/15 03:40:54;;;;;;;;;;;;;;;;;;5137794;27;860;-62
2023/12/15 03:43:20;;;;;;;;;;;;;;;;;;5138007;27;1018;-68
2023/12/15 03:45:45;;;;;;;;;;;;;;;;;;5137966;27;1155;-68
2023/12/15 03:48:11;;;;;;;;;;;;;;;;;;5137795;27;1913;-68
2023/12/15 03:50:36;;;;;;;;;;;;;;;;;;5137679;27;1002;-68
2023/12/15 03:53:01;;;;;;;;;;;;;;;;;;5118937;27;741;-68
2023/12/15 03:55:27;;;;;;;;;;;;;;;;;;5137767;27;1038;-68
2023/12/15 03:57:52;;;;;;;;;;;;;;;;;;5137699;27;962;-68
2023/12/15 04:00:20;;;;;;;;;;;;;;;;;;5119350;27;828;-67
2023/12/15 04:02:46;;;;;;;;;;;;;;;;;;5137384;27;1041;-68
2023/12/15 04:05:12;;;;;;;;;;;;;;;;;;5137356;27;1159;-68
2023/12/15 04:07:37;;;;;;;;;;;;;;;;;;5137549;27;1901;-67
2023/12/15 04:10:02;;;;;;;;;;;;;;;;;;5137293;27;982;-68
2023/12/15 04:12:27;;;;;;;;;;;;;;;;;;5137392;27;940;-68
2023/12/15 04:14:53;;;;;;;;;;;;;;;;;;5137774;27;935;-68
2023/12/15 04:17:18;;;;;;;;;;;;;;;;;;5118950;27;1393;-68
2023/12/15 04:19:43;;;;;;;;;;;;;;;;;;5119006;27;847;-62
2023/12/15 04:22:08;;;;;;;;;;;;;;;;;;5137272;27;878;-62
2023/12/15 04:24:34;;;;;;;;;;;;;;;;;;5137123;27;887;-63
2023/12/15 04:26:59;;;;;;;;;;;;;;;;;;5118697;27;852;-63
2023/12/15 04:29:24;;;;;;;;;;;;;;;;;;5137019;27;1902;-63
2023/12/15 04:31:50;;;;;;;;;;;;;;;;;;5137175;27;823;-63
2023/12/15 04:34:15;;;;;;;;;;;;;;;;;;5136982;27;919;-62
2023/12/15 04:36:40;;;;;;;;;;;;;;;;;;5136972;27;938;-62
2023/12/15 04:39:06;;;;;;;;;;;;;;;;;;5118815;27;1346;-68
2023/12/15 04:41:32;;;;;;;;;;;;;;;;;;5118239;27;820;-69
2023/12/15 04:43:57;;;;;;;;;;;;;;;;;;5118552;27;904;-68
2023/12/15 04:46:26;;;;;;;;;;;;;;;;;;5137206;27;874;-68
2023/12/15 04:48:51;;;;;;;;;;;;;;;;;;5118580;27;1947;-69
2023/12/15 04:51:17;;;;;;;;;;;;;;;;;;5137117;27;1231;-68
2023/12/15 04:53:43;;;;;;;;;;;;;;;;;;5137272;27;828;-68
2023/12/15 04:56:08;;;;;;;;;;;;;;;;;;5137443;27;821;-69
2023/12/15 04:58:36;;;;;;;;;;;;;;;;;;5119093;27;1215;-68
2023/12/15 05:01:01;;;;;;;;;;;;;;;;;;5118510;27;1338;-68
2023/12/15 05:03:26;;;;;;;;;;;;;;;;;;5136441;27;923;-68
2023/12/15 05:05:51;;;;;;;;;;;;;;;;;;5135489;27;1057;-68
2023/12/15 05:08:17;;;;;;;;;;;;;;;;;;5136460;27;1897;-68
2023/12/15 05:10:42;;;;;;;;;;;;;;;;;;5118542;27;916;-68
2023/12/15 05:13:07;;;;;;;;;;;;;;;;;;5136154;27;1161;-68
2023/12/15 05:15:33;;;;;;;;;;;;;;;;;;5136316;27;835;-68
2023/12/15 05:17:58;;;;;;;;;;;;;;;;;;5118150;27;698;-68
2023/12/15 05:20:23;;;;;;;;;;;;;;;;;;5136177;27;856;-68
2023/12/15 05:22:49;;;;;;;;;;;;;;;;;;5118216;27;1564;-69
2023/12/15 05:25:14;;;;;;;;;;;;;;;;;;5136059;27;841;-68
2023/12/15 05:27:39;;;;;;;;;;;;;;;;;;5135998;27;1902;-68
2023/12/15 05:30:05;;;;;;;;;;;;;;;;;;5136077;27;891;-68
2023/12/15 05:32:31;;;;;;;;;;;;;;;;;;5134588;27;1238;-68
2023/12/15 05:34:56;;;;;;;;;;;;;;;;;;5114995;27;1273;-68
2023/12/15 05:37:21;;;;;;;;;;;;;;;;;;5133329;27;1180;-68
2023/12/15 05:39:46;;;;;;;;;;;;;;;;;;5135320;27;1176;-68
2023/12/15 05:42:12;;;;;;;;;;;;;;;;;;5135135;27;892;-68
2023/12/15 05:44:38;;;;;;;;;;;;;;;;;;5135797;27;841;-69
2023/12/15 05:47:03;;;;;;;;;;;;;;;;;;5135429;27;899;-68
2023/12/15 05:49:29;;;;;;;;;;;;;;;;;;5135545;27;1976;-68
2023/12/15 05:51:54;;;;;;;;;;;;;;;;;;5116502;27;923;-68
2023/12/15 05:54:19;;;;;;;;;;;;;;;;;;5135393;27;995;-68
2023/12/15 05:56:44;;;;;;;;;;;;;;;;;;5100047;27;657;-68
2023/12/15 05:59:10;;;;;;;;;;;;;;;;;;5135499;27;1026;-68
2023/12/15 06:01:35;;;;;;;;;;;;;;;;;;5135141;27;998;-68
2023/12/15 06:04:00;;;;;;;;;;;;;;;;;;5135734;27;923;-68
2023/12/15 06:06:26;;;;;;;;;;;;;;;;;;5135304;27;856;-69
2023/12/15 06:08:51;;;;;;;;;;;;;;;;;;5135330;27;1885;-68
2023/12/15 06:11:17;;;;;;;;;;;;;;;;;;5135721;27;823;-68
2023/12/15 06:13:42;;;;;;;;;;;;;;;;;;5135929;27;900;-68
2023/12/15 06:16:08;;;;;;;;;;;;;;;;;;5135472;27;848;-68
2023/12/15 06:18:33;;;;;;;;;;;;;;;;;;5135706;27;910;-68
2023/12/15 06:20:58;;;;;;;;;;;;;;;;;;5133085;27;1174;-68
2023/12/15 06:23:24;;;;;;;;;;;;;;;;;;5132826;27;1168;-68
2023/12/15 06:25:49;;;;;;;;;;;;;;;;;;5114292;27;1348;-68
2023/12/15 06:28:14;;;;;;;;;;;;;;;;;;5132859;27;1910;-67
2023/12/15 06:30:39;;;;;;;;;;;;;;;;;;5132669;27;1206;-68
2023/12/15 06:33:06;;;;;;;;;;;;;;;;;;5132626;27;1210;-68
2023/12/15 06:35:31;;;;;;;;;;;;;;;;;;5133045;27;1380;-68
2023/12/15 06:37:56;;;;;;;;;;;;;;;;;;5132665;27;1175;-68
2023/12/15 06:40:22;;;;;;;;;;;;;;;;;;5132253;27;1215;-69
2023/12/15 06:42:47;;;;;;;;;;;;;;;;;;5131767;27;1187;-69
2023/12/15 06:45:12;;;;;;;;;;;;;;;;;;5132433;27;1179;-68
2023/12/15 06:47:38;;;;;;;;;;;;;;;;;;5134727;27;1924;-67
2023/12/15 06:50:03;;;;;;;;;;;;;;;;;;5116313;27;825;-68
2023/12/15 06:52:29;;;;;;;;;;;;;;;;;;5134164;27;912;-68
2023/12/15 06:54:54;;;;;;;;;;;;;;;;;;5134480;27;891;-67
2023/12/15 06:57:19;;;;;;;;;;;;;;;;;;5134644;27;919;-67
2023/12/15 06:59:44;;;;;;;;;;;;;;;;;;5134271;27;1040;-69
2023/12/15 07:02:10;;;;;;;;;;;;;;;;;;5134301;27;1037;-68
2023/12/15 07:04:35;;;;;;;;;;;;;;;;;;5135346;27;1175;-68
2023/12/15 07:07:00;;;;;;;;;;;;;;;;;;5134681;27;1167;-68
2023/12/15 07:09:26;;;;;;;;;;;;;;;;;;5137212;27;1901;-68
2023/12/15 07:11:52;;;;;;;;;;;;;;;;;;5138587;27;896;-68
2023/12/15 07:14:17;;;;;;;;;;;;;;;;;;5138208;27;975;-69
2023/12/15 07:16:42;;;;;;;;;;;;;;;;;;5138408;27;995;-68
2023/12/15 07:19:08;;;;;;;;;;;;;;;;;;5138400;27;962;-69
2023/12/15 07:21:33;;;;;;;;;;;;;;;;;;5138038;27;935;-68
2023/12/15 07:23:59;;;;;;;;;;;;;;;;;;5138343;27;851;-67
2023/12/15 07:26:24;;;;;;;;;;;;;;;;;;5137970;27;820;-68
2023/12/15 07:28:49;;;;;;;;;;;;;;;;;;5138398;27;1960;-69
2023/12/15 07:31:15;;;;;;;;;;;;;;;;;;5137774;27;903;-68
2023/12/15 07:33:40;;;;;;;;;;;;;;;;;;5135951;27;980;-69
2023/12/15 07:36:06;;;;;;;;;;;;;;;;;;5138036;27;991;-68
2023/12/15 07:38:31;;;;;;;;;;;;;;;;;;5137875;27;926;-68
2023/12/15 07:40:57;;;;;;;;;;;;;;;;;;5137678;27;975;-69
2023/12/15 07:43:22;;;;;;;;;;;;;;;;;;5137632;27;840;-68
2023/12/15 07:45:47;;;;;;;;;;;;;;;;;;5137765;27;1002;-68
2023/12/15 07:48:13;;;;;;;;;;;;;;;;;;5119365;27;1965;-68
2023/12/15 07:50:39;;;;;;;;;;;;;;;;;;5138122;27;908;-68
2023/12/15 07:53:04;;;;;;;;;;;;;;;;;;5119084;27;1205;-68
2023/12/15 07:55:29;;;;;;;;;;;;;;;;;;5137617;27;983;-68
2023/12/15 07:57:55;;;;;;;;;;;;;;;;;;5138139;27;891;-68
2023/12/15 08:00:20;;;;;;;;;;;;;;;;;;5118879;27;1026;-68
2023/12/15 08:02:45;;;;;;;;;;;;;;;;;;5137772;27;994;-68
2023/12/15 08:05:11;;;;;;;;;;;;;;;;;;5136105;27;1170;-67
2023/12/15 08:07:36;;;;;;;;;;;;;;;;;;5132738;27;1905;-68
2023/12/15 08:10:01;;;;;;;;;;;;;;;;;;5135801;27;1155;-69
2023/12/15 08:12:27;;;;;;;;;;;;;;;;;;5117132;27;1289;-67
2023/12/15 08:14:52;;;;;;;;;;;;;;;;;;5134703;27;1211;-68
2023/12/15 08:17:17;;;;;;;;;;;;;;;;;;5137061;27;1199;-68
2023/12/15 08:19:44;;;;;;;;;;;;;;;;;;5137632;27;923;-68
2023/12/15 08:22:10;;;;;;;;;;;;;;;;;;5137469;27;1018;-68
2023/12/15 08:24:35;;;;;;;;;;;;;;;;;;5138140;27;1010;-69
2023/12/15 08:27:01;;;;;;;;;;;;;;;;;;5137532;27;867;-68
2023/12/15 08:29:26;;;;;;;;;;;;;;;;;;5137132;27;1910;-68
2023/12/15 08:31:51;;;;;;;;;;;;;;;;;;5137209;27;801;-69
2023/12/15 08:34:17;;;;;;;;;;;;;;;;;;5137179;27;934;-68
2023/12/15 08:36:43;;;;;;;;;;;;;;;;;;5118901;27;804;-68
2023/12/15 08:39:08;;;;;;;;;;;;;;;;;;5136916;27;895;-68
2023/12/15 08:41:34;;;;;;;;;;;;;;;;;;5136761;27;899;-68
2023/12/15 08:43:59;;;;;;;;;;;;;;;;;;5136908;27;813;-68
2023/12/15 08:46:24;;;;;;;;;;;;;;;;;;5101475;27;752;-68
2023/12/15 08:48:51;;;;;;;;;;;;;;;;;;5136693;27;1897;-68
2023/12/15 08:51:16;;;;;;;;;;;;;;;;;;5136836;27;856;-68
2023/12/15 08:53:42;;;;;;;;;;;;;;;;;;5118395;27;903;-68
2023/12/15 08:56:07;;;;;;;;;;;;;;;;;;5136820;27;872;-68
2023/12/15 08:58:32;;;;;;;;;;;;;;;;;;5136674;27;911;-68
2023/12/15 09:00:58;;;;;;;;;;;;;;;;;;5118312;27;1196;-68
2023/12/15 09:03:23;;;;;;;;;;;;;;;;;;5136382;27;848;-68
2023/12/15 09:05:48;;;;;;;;;;;;;;;;;;5134819;27;1215;-68
2023/12/15 09:08:13;;;;;;;;;;;;;;;;;;5114221;27;1901;-67
2023/12/15 09:10:43;;;;;;;;;;;;;;;;;;5133627;27;1179;-68
2023/12/15 09:13:09;;;;;;;;;;;;;;;;;;5114598;27;1474;-68
2023/12/15 09:15:34;;;;;;;;;;;;;;;;;;5133746;27;1155;-68
2023/12/15 09:17:59;;;;;;;;;;;;;;;;;;5136340;27;1038;-68
2023/12/15 09:20:25;;;;;;;;;;;;;;;;;;5135912;27;856;-68
2023/12/15 09:22:50;;;;;;;;;;;;;;;;;;5136094;27;876;-68
2023/12/15 09:25:15;;;;;;;;;;;;;;;;;;5117845;27;911;-68
2023/12/15 09:27:41;;;;;;;;;;;;;;;;;;5135832;27;1956;-68
2023/12/15 09:30:06;;;;;;;;;;;;;;;;;;5136447;27;994;-68
2023/12/15 09:32:31;;;;;;;;;;;;;;;;;;5135772;27;970;-68
2023/12/15 09:34:57;;;;;;;;;;;;;;;;;;5136123;27;844;-68
2023/12/15 09:37:22;;;;;;;;;;;;;;;;;;5117683;27;1302;-68
2023/12/15 09:39:48;;;;;;;;;;;;;;;;;;5136121;27;855;-67
2023/12/15 09:42:14;;;;;;;;;;;;;;;;;;5135810;27;903;-68
2023/12/15 09:44:39;;;;;;;;;;;;;;;;;;5135898;27;871;-62
2023/12/15 09:47:05;;;;;;;;;;;;;;;;;;5136065;27;891;-62
2023/12/15 09:49:32;;;;;;;;;;;;;;;;;;5117260;27;1890;-62
2023/12/15 09:52:00;;;;;;;;;;;;;;;;;;5135517;27;839;-62
2023/12/15 09:54:25;;;;;;;;;;;;;;;;;;5135522;27;989;-62
2023/12/15 09:56:50;;;;;;;;;;;;;;;;;;5135083;27;811;-62
2023/12/15 09:59:16;;;;;;;;;;;;;;;;;;5134753;27;1191;-61
2023/12/15 10:01:41;;;;;;;;;;;;;;;;;;5133683;27;765;-62
2023/12/15 10:04:06;;;;;;;;;;;;;;;;;;5116568;27;875;-62
2023/12/15 10:06:32;;;;;;;;;;;;;;;;;;5134822;27;856;-60
2023/12/15 10:08:59;;;;;;;;;;;;;;;;;;5134515;27;1910;-62
2023/12/15 10:11:24;;;;;;;;;;;;;;;;;;5134800;27;879;-62
2023/12/15 10:13:49;;;;;;;;;;;;;;;;;;5135004;27;1002;-62
2023/12/15 10:16:15;;;;;;;;;;;;;;;;;;5134618;27;931;-62
2023/12/15 10:18:40;;;;;;;;;;;;;;;;;;5135024;27;922;-62
2023/12/15 10:21:06;;;;;;;;;;;;;;;;;;5116545;27;934;-62
2023/12/15 10:23:31;;;;;;;;;;;;;;;;;;5134875;27;839;-62
2023/12/15 10:26:02;;;;;;;;;;;;;;;;;;5134888;27;839;-62
2023/12/15 10:28:34;;;;;;;;;;;;;;;;;;5134388;27;1984;-61
2023/12/15 10:30:59;;;;;;;;;;;;;;;;;;5134928;27;829;-61
2023/12/15 10:33:26;;;;;;;;;;;;;;;;;;5135028;27;935;-61
2023/12/15 10:35:53;;;;;;;;;;;;;;;;;;5134936;27;910;-60
2023/12/15 10:38:18;;;;;;;;;;;;;;;;;;5134775;27;1111;-61
2023/12/15 10:40:43;;;;;;;;;;;;;;;;;;5134875;27;902;-62
2023/12/15 10:43:13;;;;;;;;;;;;;;;;;;5134843;27;789;-62
2023/12/15 10:45:38;;;;;;;;;;;;;;;;;;5134671;27;840;-62
2023/12/15 10:48:03;;;;;;;;;;;;;;;;;;5135034;27;1984;-67
2023/12/15 10:50:29;;;;;;;;;;;;;;;;;;5116026;27;1358;-67
2023/12/15 10:52:55;;;;;;;;;;;;;;;;;;5134475;27;898;-67
2023/12/15 10:55:23;;;;;;;;;;;;;;;;;;5134598;27;927;-67
2023/12/15 10:57:48;;;;;;;;;;;;;;;;;;5135047;27;974;-67
2023/12/15 11:00:17;;;;;;;;;;;;;;;;;;5134826;27;836;-67
2023/12/15 11:02:44;;;;;;;;;;;;;;;;;;5115852;28;942;-68
2023/12/15 11:05:10;;;;;;;;;;;;;;;;;;5134723;28;903;-67
2023/12/15 11:07:35;;;;;;;;;;;;;;;;;;5134625;28;1885;-67
2023/12/15 11:10:00;;;;;;;;;;;;;;;;;;5133599;28;824;-66
2023/12/15 11:12:34;;;;;;;;;;;;;;;;;;5133525;28;880;-67
2023/12/15 11:15:06;;;;;;;;;;;;;;;;;;5116599;28;1340;-68
2023/12/15 11:17:32;;;;;;;;;;;;;;;;;;5135179;28;856;-67
2023/12/15 11:20:03;;;;;;;;;;;;;;;;;;5134866;28;880;-67
2023/12/15 11:22:28;;;;;;;;;;;;;;;;;;5134530;28;837;-67
2023/12/15 11:24:55;;;;;;;;;;;;;;;;;;5116447;28;895;-67
2023/12/15 11:27:20;;;;;;;;;;;;;;;;;;5134611;28;998;-66
2023/12/15 11:29:45;;;;;;;;;;;;;;;;;;5134950;28;2062;-68
2023/12/15 11:32:29;;;;;;;;;;;;;;;;;;5115855;28;895;-68
2023/12/15 11:34:55;;;;;;;;;;;;;;;;;;5134537;28;835;-67
2023/12/15 11:37:22;;;;;;;;;;;;;;;;;;5134429;28;1010;-68
2023/12/15 11:39:47;;;;;;;;;;;;;;;;;;5134822;28;861;-61
2023/12/15 11:42:14;;;;;;;;;;;;;;;;;;5134393;28;915;-62
2023/12/15 11:44:39;;;;;;;;;;;;;;;;;;5134280;28;847;-61
2023/12/15 11:47:06;;;;;;;;;;;;;;;;;;5134065;28;914;-62
2023/12/15 11:49:32;;;;;;;;;;;;;;;;;;5133631;27;1969;-62
2023/12/15 11:51:57;;;;;;;;;;;;;;;;;;5137832;27;884;-61
2023/12/15 11:54:25;;;;;;;;;;;;;;;;;;5119353;27;880;-62
2023/12/15 11:56:50;;;;;;;;;;;;;;;;;;5138006;27;983;-62
2023/12/15 11:59:16;;;;;;;;;;;;;;;;;;5138377;27;1037;-61
2023/12/15 12:01:41;;;;;;;;;;;;;;;;;;5137682;27;934;-63
2023/12/15 12:04:16;;;;;;;;;;;;;;;;;;5138040;27;809;-62
2023/12/15 12:06:42;;;;;;;;;;;;;;;;;;5137369;27;923;-61
2023/12/15 12:09:10;;;;;;;;;;;;;;;;;;5137526;27;1969;-63
2023/12/15 12:11:36;;;;;;;;;;;;;;;;;;5136834;27;926;-63
2023/12/15 12:14:03;;;;;;;;;;;;;;;;;;5137380;27;895;-63
2023/12/15 12:16:31;;;;;;;;;;;;;;;;;;5136858;27;840;-63
2023/12/15 12:18:56;;;;;;;;;;;;;;;;;;5137391;27;1046;-63
2023/12/15 12:21:21;;;;;;;;;;;;;;;;;;5137174;27;931;-63
2023/12/15 12:23:48;;;;;;;;;;;;;;;;;;5137023;27;820;-62
2023/12/15 12:26:13;;;;;;;;;;;;;;;;;;5136946;27;856;-62
2023/12/15 12:28:40;;;;;;;;;;;;;;;;;;5136937;27;1893;-63
2023/12/15 12:31:06;;;;;;;;;;;;;;;;;;5137576;27;828;-62
2023/12/15 12:33:32;;;;;;;;;;;;;;;;;;5136679;27;865;-63
2023/12/15 12:35:58;;;;;;;;;;;;;;;;;;5136954;27;781;-63
2023/12/15 12:38:23;;;;;;;;;;;;;;;;;;5137077;27;1048;-62
2023/12/15 12:40:48;;;;;;;;;;;;;;;;;;5118279;27;828;-63
2023/12/15 12:43:13;;;;;;;;;;;;;;;;;;5136617;27;896;-62
2023/12/15 12:45:39;;;;;;;;;;;;;;;;;;5118040;27;1193;-63
2023/12/15 12:48:04;;;;;;;;;;;;;;;;;;5136621;27;1905;-62
2023/12/15 12:50:30;;;;;;;;;;;;;;;;;;5136728;27;824;-62
2023/12/15 12:52:55;;;;;;;;;;;;;;;;;;5136863;27;1030;-62
2023/12/15 12:55:21;;;;;;;;;;;;;;;;;;5136740;27;777;-62
2023/12/15 12:57:47;;;;;;;;;;;;;;;;;;5136588;27;915;-63
2023/12/15 13:00:13;;;;;;;;;;;;;;;;;;5136607;27;939;-63
2023/12/15 13:02:39;;;;;;;;;;;;;;;;;;5136367;27;805;-63
2023/12/15 13:05:05;;;;;;;;;;;;;;;;;;5118275;27;927;-63
2023/12/15 13:07:31;;;;;;;;;;;;;;;;;;5135991;27;1885;-62
2023/12/15 13:09:56;;;;;;;;;;;;;;;;;;5136068;27;770;-62
2023/12/15 13:12:21;;;;;;;;;;;;;;;;;;5135317;27;844;-68
2023/12/15 13:14:46;;;;;;;;;;;;;;;;;;5136325;27;844;-68
2023/12/15 13:17:12;;;;;;;;;;;;;;;;;;5117898;27;1079;-63
2023/12/15 13:19:38;;;;;;;;;;;;;;;;;;5117481;27;1277;-63
2023/12/15 13:22:03;;;;;;;;;;;;;;;;;;5117950;27;904;-62
2023/12/15 13:24:28;;;;;;;;;;;;;;;;;;5135769;27;825;-63
2023/12/15 13:26:54;;;;;;;;;;;;;;;;;;5135786;27;899;-61
2023/12/15 13:29:19;;;;;;;;;;;;;;;;;;5136169;27;1950;-63
2023/12/15 13:31:44;;;;;;;;;;;;;;;;;;5117544;27;1298;-63
2023/12/15 13:34:10;;;;;;;;;;;;;;;;;;5117559;27;865;-62
2023/12/15 13:36:35;;;;;;;;;;;;;;;;;;5135835;27;942;-62
2023/12/15 13:39:00;;;;;;;;;;;;;;;;;;5135202;27;1023;-63
2023/12/15 13:41:26;;;;;;;;;;;;;;;;;;5135365;27;844;-63
2023/12/15 13:43:51;;;;;;;;;;;;;;;;;;5135468;27;770;-63
2023/12/15 13:46:19;;;;;;;;;;;;;;;;;;5135477;27;1201;-62
2023/12/15 13:48:44;;;;;;;;;;;;;;;;;;5135429;27;1983;-62
2023/12/15 13:51:10;;;;;;;;;;;;;;;;;;5135446;27;986;-63
2023/12/15 13:53:35;;;;;;;;;;;;;;;;;;5134653;27;915;-62
2023/12/15 13:56:00;;;;;;;;;;;;;;;;;;5135159;27;927;-62
2023/12/15 13:58:26;;;;;;;;;;;;;;;;;;5134929;27;997;-62
2023/12/15 14:00:51;;;;;;;;;;;;;;;;;;5134916;27;828;-62
2023/12/15 14:03:17;;;;;;;;;;;;;;;;;;5134955;27;957;-61
2023/12/15 14:05:42;;;;;;;;;;;;;;;;;;5116698;27;1286;-63
2023/12/15 14:08:08;;;;;;;;;;;;;;;;;;5134948;27;1956;-68
2023/12/15 14:10:34;;;;;;;;;;;;;;;;;;5134807;27;855;-68
2023/12/15 14:12:59;;;;;;;;;;;;;;;;;;5115203;27;867;-67
2023/12/15 14:15:24;;;;;;;;;;;;;;;;;;5134379;27;864;-68
2023/12/15 14:17:50;;;;;;;;;;;;;;;;;;5134817;27;832;-68
2023/12/15 14:20:15;;;;;;;;;;;;;;;;;;5134880;27;919;-67
2023/12/15 14:22:41;;;;;;;;;;;;;;;;;;5134455;27;820;-67
2023/12/15 14:25:07;;;;;;;;;;;;;;;;;;5134851;27;892;-67
2023/12/15 14:27:33;;;;;;;;;;;;;;;;;;5134551;27;1952;-67
2023/12/15 14:29:59;;;;;;;;;;;;;;;;;;5135472;27;812;-68
2023/12/15 14:32:24;;;;;;;;;;;;;;;;;;5134949;27;823;-68
2023/12/15 14:34:49;;;;;;;;;;;;;;;;;;5134755;27;1023;-67
2023/12/15 14:37:16;;;;;;;;;;;;;;;;;;5134791;27;855;-67
2023/12/15 14:39:41;;;;;;;;;;;;;;;;;;5116144;27;1285;-68
2023/12/15 14:42:06;;;;;;;;;;;;;;;;;;5135116;27;863;-67
2023/12/15 14:44:32;;;;;;;;;;;;;;;;;;5134638;27;888;-68
2023/12/15 14:46:57;;;;;;;;;;;;;;;;;;5135087;27;875;-67
2023/12/15 14:49:23;;;;;;;;;;;;;;;;;;5135123;27;1963;-68
2023/12/15 14:51:48;;;;;;;;;;;;;;;;;;5134483;27;1005;-68
2023/12/15 14:54:13;;;;;;;;;;;;;;;;;;5134789;27;931;-67
2023/12/15 14:56:38;;;;;;;;;;;;;;;;;;5134607;27;916;-68
2023/12/15 14:59:04;;;;;;;;;;;;;;;;;;5134499;27;1033;-68
2023/12/15 15:01:29;;;;;;;;;;;;;;;;;;5134464;27;998;-68
2023/12/15 15:03:55;;;;;;;;;;;;;;;;;;5134294;28;935;-68
2023/12/15 15:06:20;;;;;;;;;;;;;;;;;;5134435;28;829;-67
2023/12/15 15:08:45;;;;;;;;;;;;;;;;;;5133906;28;1966;-68
2023/12/15 15:11:11;;;;;;;;;;;;;;;;;;5134692;28;903;-66
2023/12/15 15:13:37;;;;;;;;;;;;;;;;;;5113771;28;1387;-67
2023/12/15 15:16:02;;;;;;;;;;;;;;;;;;5131597;27;1211;-67
2023/12/15 15:18:27;;;;;;;;;;;;;;;;;;5114967;28;1097;-66
2023/12/15 15:20:53;;;;;;;;;;;;;;;;;;5134690;27;903;-67
2023/12/15 15:23:18;;;;;;;;;;;;;;;;;;5116373;28;1315;-69
2023/12/15 15:25:43;;;;;;;;;;;;;;;;;;5139024;27;918;-69
2023/12/15 15:28:09;;;;;;;;;;;;;;;;;;5139427;27;1894;-69
2023/12/15 15:30:35;;;;;;;;;;;;;;;;;;5121484;27;1001;-65
2023/12/15 15:33:00;;;;;;;;;;;;;;;;;;5139192;27;852;-66
2023/12/15 15:35:26;;;;;;;;;;;;;;;;;;5120844;27;906;-66
2023/12/15 15:37:51;;;;;;;;;;;;;;;;;;5139553;27;935;-66
2023/12/15 15:40:16;;;;;;;;;;;;;;;;;;5120691;27;896;-67
2023/12/15 15:42:42;;;;;;;;;;;;;;;;;;5139062;27;911;-69
2023/12/15 15:45:07;;;;;;;;;;;;;;;;;;5139551;27;1060;-68
2023/12/15 15:47:32;;;;;;;;;;;;;;;;;;5139079;27;1902;-68
2023/12/15 15:49:58;;;;;;;;;;;;;;;;;;5139560;27;986;-68
2023/12/15 15:52:25;;;;;;;;;;;;;;;;;;5139395;27;816;-68
2023/12/15 15:54:51;;;;;;;;;;;;;;;;;;5138847;27;848;-67
2023/12/15 15:57:16;;;;;;;;;;;;;;;;;;5120533;27;1451;-68
2023/12/15 15:59:42;;;;;;;;;;;;;;;;;;5139349;27;1048;-68
2023/12/15 16:02:07;;;;;;;;;;;;;;;;;;5139680;27;903;-68
2023/12/15 16:04:32;;;;;;;;;;;;;;;;;;5139723;27;876;-69
2023/12/15 16:06:57;;;;;;;;;;;;;;;;;;5136723;27;876;-69
2023/12/15 16:09:23;;;;;;;;;;;;;;;;;;5136638;27;1894;-69
2023/12/15 16:11:48;;;;;;;;;;;;;;;;;;5138170;27;767;-69
2023/12/15 16:14:13;;;;;;;;;;;;;;;;;;5135480;27;1241;-68
2023/12/15 16:16:39;;;;;;;;;;;;;;;;;;5135008;27;1222;-69
2023/12/15 16:19:04;;;;;;;;;;;;;;;;;;5116261;27;1384;-68
2023/12/15 16:21:33;;;;;;;;;;;;;;;;;;5136357;27;1226;-69
2023/12/15 16:23:58;;;;;;;;;;;;;;;;;;5137833;27;661;-69
2023/12/15 16:26:25;;;;;;;;;;;;;;;;;;5137534;27;935;-67
2023/12/15 16:28:50;;;;;;;;;;;;;;;;;;5119411;27;1960;-69
2023/12/15 16:31:15;;;;;;;;;;;;;;;;;;5137663;27;950;-68
2023/12/15 16:33:41;;;;;;;;;;;;;;;;;;5137095;27;920;-68
2023/12/15 16:36:07;;;;;;;;;;;;;;;;;;5136985;27;1153;-68
2023/12/15 16:38:33;;;;;;;;;;;;;;;;;;5119276;27;1298;-68
2023/12/15 16:40:58;;;;;;;;;;;;;;;;;;5137565;27;919;-68
2023/12/15 16:43:23;;;;;;;;;;;;;;;;;;5136917;27;1254;-68
2023/12/15 16:45:49;;;;;;;;;;;;;;;;;;5115979;27;1143;-69
2023/12/15 16:48:14;;;;;;;;;;;;;;;;;;5136825;27;1977;-68
2023/12/15 16:50:40;;;;;;;;;;;;;;;;;;5137052;27;975;-68
2023/12/15 16:53:05;;;;;;;;;;;;;;;;;;5137248;27;883;-69
2023/12/15 16:55:30;;;;;;;;;;;;;;;;;;5136875;27;1061;-67
2023/12/15 16:57:56;;;;;;;;;;;;;;;;;;5136262;27;1061;-68
2023/12/15 17:00:21;;;;;;;;;;;;;;;;;;5118477;27;895;-63
2023/12/15 17:02:47;;;;;;;;;;;;;;;;;;5136205;27;844;-63